sensor_id;sensor_type;location;lat;lon;timestamp;P1;P2;P0
49656;PMS5003;71194;38.900;-77.124;2023-11-21T00:00:34;8;8;
49656;PMS5003;71194;38.900;-77.124;2023-11-21T00:03:02;11;11;
49656;PMS5003;71194;38.900;-77.124;2023-11-21T00:05:30;5;5;
49656;PMS5003;71194;38.900;-77.124;2023-11-21T00:07:58;4;4;
49656;PMS5003;71194;38.900;-77.124;2023-11-21T00:10:26;7;7;
49656;PMS5003;71194;38.900;-77.124;2023-11-21T00:12:55;6;6;
49656;PMS5003;71194;38.900;-77.124;2023-11-21T00:15:23;3;3;
49656;PMS5003;71194;38.900;-77.124;2023-11-21T00:17:51;4;4;
49656;PMS5003;71194;38.900;-77.124;2023-11-21T00:20:19;6;6;
49656;PMS5003;71194;38.900;-77.124;2023-11-21T00:22:47;8;5;
49656;PMS5003;71194;38.900;-77.124;2023-11-21T00:25:15;6;6;
49656;PMS5003;71194;38.900;-77.124;2023-11-21T00:27:43;5;5;
49656;PMS5003;71194;38.900;-77.124;2023-11-21T00:30:12;5;5;
49656;PMS5003;71194;38.900;-77.124;2023-11-21T00:32:40;5;5;
49656;PMS5003;71194;38.900;-77.124;2023-11-21T00:35:08;6;5;
49656;PMS5003;71194;38.900;-77.124;2023-11-21T00:37:36;5;4;
49656;PMS5003;71194;38.900;-77.124;2023-11-21T00:40:05;7;5;
49656;PMS5003;71194;38.900;-77.124;2023-11-21T00:42:33;7;7;
49656;PMS5003;71194;38.900;-77.124;2023-11-21T00:45:01;6;6;
49656;PMS5003;71194;38.900;-77.124;2023-11-21T00:47:29;5;5;
49656;PMS5003;71194;38.900;-77.124;2023-11-21T00:49:57;6;5;
49656;PMS5003;71194;38.900;-77.124;2023-11-21T00:52:25;7;7;
49656;PMS5003;71194;38.900;-77.124;2023-11-21T00:54:53;5;5;
49656;PMS5003;71194;38.900;-77.124;2023-11-21T00:57:21;6;6;
49656;PMS5003;71194;38.900;-77.124;2023-11-21T00:59:49;7;5;
49656;PMS5003;71194;38.900;-77.124;2023-11-21T01:02:17;6;5;
49656;PMS5003;71194;38.900;-77.124;2023-11-21T01:04:46;9;7;
49656;PMS5003;71194;38.900;-77.124;2023-11-21T01:07:14;6;6;
49656;PMS5003;71194;38.900;-77.124;2023-11-21T01:09:42;7;6;
49656;PMS5003;71194;38.900;-77.124;2023-11-21T01:12:10;8;7;
49656;PMS5003;71194;38.900;-77.124;2023-11-21T01:14:38;7;7;
49656;PMS5003;71194;38.900;-77.124;2023-11-21T01:17:06;7;6;
49656;PMS5003;71194;38.900;-77.124;2023-11-21T01:19:34;7;6;
49656;PMS5003;71194;38.900;-77.124;2023-11-21T01:22:02;8;8;
49656;PMS5003;71194;38.900;-77.124;2023-11-21T01:24:30;6;6;
49656;PMS5003;71194;38.900;-77.124;2023-11-21T01:26:59;10;9;
49656;PMS5003;71194;38.900;-77.124;2023-11-21T01:29:27;9;9;
49656;PMS5003;71194;38.900;-77.124;2023-11-21T01:31:55;8;7;
49656;PMS5003;71194;38.900;-77.124;2023-11-21T01:34:23;10;9;
49656;PMS5003;71194;38.900;-77.124;2023-11-21T01:36:51;15;9;
49656;PMS5003;71194;38.900;-77.124;2023-11-21T01:39:19;14;13;
49656;PMS5003;71194;38.900;-77.124;2023-11-21T01:41:47;9;9;
49656;PMS5003;71194;38.900;-77.124;2023-11-21T01:44:15;7;7;
49656;PMS5003;71194;38.900;-77.124;2023-11-21T01:46:43;8;6;
49656;PMS5003;71194;38.900;-77.124;2023-11-21T01:49:11;10;9;
49656;PMS5003;71194;38.900;-77.124;2023-11-21T01:51:40;13;7;
49656;PMS5003;71194;38.900;-77.124;2023-11-21T01:54:09;9;7;
49656;PMS5003;71194;38.900;-77.124;2023-11-21T01:56:37;10;9;
49656;PMS5003;71194;38.900;-77.124;2023-11-21T01:59:05;8;7;
49656;PMS5003;71194;38.900;-77.124;2023-11-21T02:01:33;6;6;
49656;PMS5003;71194;38.900;-77.124;2023-11-21T02:04:01;8;8;
49656;PMS5003;71194;38.900;-77.124;2023-11-21T02:06:30;7;7;
49656;PMS5003;71194;38.900;-77.124;2023-11-21T02:08:58;7;7;
49656;PMS5003;71194;38.900;-77.124;2023-11-21T02:11:26;9;7;
49656;PMS5003;71194;38.900;-77.124;2023-11-21T02:13:54;7;7;
49656;PMS5003;71194;38.900;-77.124;2023-11-21T02:16:22;14;10;
49656;PMS5003;71194;38.900;-77.124;2023-11-21T02:18:50;9;8;
49656;PMS5003;71194;38.900;-77.124;2023-11-21T02:21:18;11;10;
49656;PMS5003;71194;38.900;-77.124;2023-11-21T02:23:47;11;10;
49656;PMS5003;71194;38.900;-77.124;2023-11-21T02:26:15;11;11;
49656;PMS5003;71194;38.900;-77.124;2023-11-21T02:28:43;11;10;
49656;PMS5003;71194;38.900;-77.124;2023-11-21T02:31:10;12;12;
49656;PMS5003;71194;38.900;-77.124;2023-11-21T02:33:38;13;13;
49656;PMS5003;71194;38.900;-77.124;2023-11-21T02:36:05;12;10;
49656;PMS5003;71194;38.900;-77.124;2023-11-21T02:38:34;9;6;
49656;PMS5003;71194;38.900;-77.124;2023-11-21T02:41:02;14;14;
49656;PMS5003;71194;38.900;-77.124;2023-11-21T02:43:30;13;11;
49656;PMS5003;71194;38.900;-77.124;2023-11-21T02:45:58;9;8;
49656;PMS5003;71194;38.900;-77.124;2023-11-21T02:48:26;7;7;
49656;PMS5003;71194;38.900;-77.124;2023-11-21T02:50:54;8;8;
49656;PMS5003;71194;38.900;-77.124;2023-11-21T02:53:22;8;8;
49656;PMS5003;71194;38.900;-77.124;2023-11-21T02:55:51;6;5;
49656;PMS5003;71194;38.900;-77.124;2023-11-21T02:58:18;6;6;
49656;PMS5003;71194;38.900;-77.124;2023-11-21T03:00:47;6;6;
49656;PMS5003;71194;38.900;-77.124;2023-11-21T03:03:15;9;8;
49656;PMS5003;71194;38.900;-77.124;2023-11-21T03:05:43;7;7;
49656;PMS5003;71194;38.900;-77.124;2023-11-21T03:08:11;10;8;
49656;PMS5003;71194;38.900;-77.124;2023-11-21T03:10:39;7;6;
49656;PMS5003;71194;38.900;-77.124;2023-11-21T03:13:07;7;7;
49656;PMS5003;71194;38.900;-77.124;2023-11-21T03:15:35;8;7;
49656;PMS5003;71194;38.900;-77.124;2023-11-21T03:18:03;6;5;
49656;PMS5003;71194;38.900;-77.124;2023-11-21T03:20:30;8;8;
49656;PMS5003;71194;38.900;-77.124;2023-11-21T03:22:58;10;5;
49656;PMS5003;71194;38.900;-77.124;2023-11-21T03:25:27;7;7;
49656;PMS5003;71194;38.900;-77.124;2023-11-21T03:27:55;5;5;
49656;PMS5003;71194;38.900;-77.124;2023-11-21T03:30:23;10;9;
49656;PMS5003;71194;38.900;-77.124;2023-11-21T03:32:52;10;8;
49656;PMS5003;71194;38.900;-77.124;2023-11-21T03:35:19;10;8;
49656;PMS5003;71194;38.900;-77.124;2023-11-21T03:37:48;8;7;
49656;PMS5003;71194;38.900;-77.124;2023-11-21T03:40:16;8;6;
49656;PMS5003;71194;38.900;-77.124;2023-11-21T03:42:44;11;10;
49656;PMS5003;71194;38.900;-77.124;2023-11-21T03:45:12;4;4;
49656;PMS5003;71194;38.900;-77.124;2023-11-21T03:47:40;7;5;
49656;PMS5003;71194;38.900;-77.124;2023-11-21T03:50:09;6;6;
49656;PMS5003;71194;38.900;-77.124;2023-11-21T03:52:37;5;5;
49656;PMS5003;71194;38.900;-77.124;2023-11-21T03:55:05;5;5;
49656;PMS5003;71194;38.900;-77.124;2023-11-21T03:57:33;9;8;
49656;PMS5003;71194;38.900;-77.124;2023-11-21T04:00:01;6;6;
49656;PMS5003;71194;38.900;-77.124;2023-11-21T04:02:30;6;6;
49656;PMS5003;71194;38.900;-77.124;2023-11-21T04:04:58;6;5;
49656;PMS5003;71194;38.900;-77.124;2023-11-21T04:07:26;10;10;
49656;PMS5003;71194;38.900;-77.124;2023-11-21T04:09:54;5;5;
49656;PMS5003;71194;38.900;-77.124;2023-11-21T04:12:22;8;8;
49656;PMS5003;71194;38.900;-77.124;2023-11-21T04:14:50;5;5;
49656;PMS5003;71194;38.900;-77.124;2023-11-21T04:17:18;6;6;
49656;PMS5003;71194;38.900;-77.124;2023-11-21T04:19:46;5;5;
49656;PMS5003;71194;38.900;-77.124;2023-11-21T04:22:14;6;5;
49656;PMS5003;71194;38.900;-77.124;2023-11-21T04:24:42;7;4;
49656;PMS5003;71194;38.900;-77.124;2023-11-21T04:27:10;7;6;
49656;PMS5003;71194;38.900;-77.124;2023-11-21T04:29:38;7;6;
49656;PMS5003;71194;38.900;-77.124;2023-11-21T04:32:06;4;4;
49656;PMS5003;71194;38.900;-77.124;2023-11-21T04:34:34;7;6;
49656;PMS5003;71194;38.900;-77.124;2023-11-21T04:37:02;4;4;
49656;PMS5003;71194;38.900;-77.124;2023-11-21T04:39:30;4;4;
49656;PMS5003;71194;38.900;-77.124;2023-11-21T04:41:58;4;2;
49656;PMS5003;71194;38.900;-77.124;2023-11-21T04:44:26;6;5;
49656;PMS5003;71194;38.900;-77.124;2023-11-21T04:46:54;3;3;
49656;PMS5003;71194;38.900;-77.124;2023-11-21T04:49:22;3;3;
49656;PMS5003;71194;38.900;-77.124;2023-11-21T04:51:50;5;5;
49656;PMS5003;71194;38.900;-77.124;2023-11-21T04:54:18;6;5;
49656;PMS5003;71194;38.900;-77.124;2023-11-21T04:56:46;4;4;
49656;PMS5003;71194;38.900;-77.124;2023-11-21T04:59:15;5;4;
49656;PMS5003;71194;38.900;-77.124;2023-11-21T05:01:43;6;6;
49656;PMS5003;71194;38.900;-77.124;2023-11-21T05:04:11;5;5;
49656;PMS5003;71194;38.900;-77.124;2023-11-21T05:06:38;8;7;
49656;PMS5003;71194;38.900;-77.124;2023-11-21T05:09:07;5;4;
49656;PMS5003;71194;38.900;-77.124;2023-11-21T05:11:35;5;5;
49656;PMS5003;71194;38.900;-77.124;2023-11-21T05:14:02;8;7;
49656;PMS5003;71194;38.900;-77.124;2023-11-21T05:16:30;6;5;
49656;PMS5003;71194;38.900;-77.124;2023-11-21T05:18:58;6;6;
49656;PMS5003;71194;38.900;-77.124;2023-11-21T05:21:26;8;6;
49656;PMS5003;71194;38.900;-77.124;2023-11-21T05:23:54;4;4;
49656;PMS5003;71194;38.900;-77.124;2023-11-21T05:26:22;6;6;
49656;PMS5003;71194;38.900;-77.124;2023-11-21T05:28:51;7;6;
49656;PMS5003;71194;38.900;-77.124;2023-11-21T05:31:19;7;5;
49656;PMS5003;71194;38.900;-77.124;2023-11-21T05:33:47;7;5;
49656;PMS5003;71194;38.900;-77.124;2023-11-21T05:36:15;6;6;
49656;PMS5003;71194;38.900;-77.124;2023-11-21T05:38:43;8;6;
49656;PMS5003;71194;38.900;-77.124;2023-11-21T05:41:11;7;7;
49656;PMS5003;71194;38.900;-77.124;2023-11-21T05:43:39;6;6;
49656;PMS5003;71194;38.900;-77.124;2023-11-21T05:46:07;9;8;
49656;PMS5003;71194;38.900;-77.124;2023-11-21T05:48:35;8;7;
49656;PMS5003;71194;38.900;-77.124;2023-11-21T05:51:03;8;8;
49656;PMS5003;71194;38.900;-77.124;2023-11-21T05:53:31;7;7;
49656;PMS5003;71194;38.900;-77.124;2023-11-21T05:55:59;5;5;
49656;PMS5003;71194;38.900;-77.124;2023-11-21T05:58:27;8;7;
49656;PMS5003;71194;38.900;-77.124;2023-11-21T06:00:55;6;6;
49656;PMS5003;71194;38.900;-77.124;2023-11-21T06:03:23;4;4;
49656;PMS5003;71194;38.900;-77.124;2023-11-21T06:05:51;7;6;
49656;PMS5003;71194;38.900;-77.124;2023-11-21T06:08:20;7;6;
49656;PMS5003;71194;38.900;-77.124;2023-11-21T06:10:47;6;5;
49656;PMS5003;71194;38.900;-77.124;2023-11-21T06:13:16;7;5;
49656;PMS5003;71194;38.900;-77.124;2023-11-21T06:15:44;9;8;
49656;PMS5003;71194;38.900;-77.124;2023-11-21T06:18:12;7;7;
49656;PMS5003;71194;38.900;-77.124;2023-11-21T06:20:40;11;6;
49656;PMS5003;71194;38.900;-77.124;2023-11-21T06:23:08;6;5;
49656;PMS5003;71194;38.900;-77.124;2023-11-21T06:25:36;4;4;
49656;PMS5003;71194;38.900;-77.124;2023-11-21T06:28:04;5;5;
49656;PMS5003;71194;38.900;-77.124;2023-11-21T06:30:32;5;5;
49656;PMS5003;71194;38.900;-77.124;2023-11-21T06:33:01;6;5;
49656;PMS5003;71194;38.900;-77.124;2023-11-21T06:35:28;6;6;
49656;PMS5003;71194;38.900;-77.124;2023-11-21T06:37:57;7;5;
49656;PMS5003;71194;38.900;-77.124;2023-11-21T06:40:25;6;6;
49656;PMS5003;71194;38.900;-77.124;2023-11-21T06:42:52;8;7;
49656;PMS5003;71194;38.900;-77.124;2023-11-21T06:45:21;8;6;
49656;PMS5003;71194;38.900;-77.124;2023-11-21T06:47:49;7;7;
49656;PMS5003;71194;38.900;-77.124;2023-11-21T06:50:17;6;6;
49656;PMS5003;71194;38.900;-77.124;2023-11-21T06:52:45;8;8;
49656;PMS5003;71194;38.900;-77.124;2023-11-21T06:55:13;8;7;
49656;PMS5003;71194;38.900;-77.124;2023-11-21T06:57:41;9;8;
49656;PMS5003;71194;38.900;-77.124;2023-11-21T07:00:10;6;6;
49656;PMS5003;71194;38.900;-77.124;2023-11-21T07:02:38;8;8;
49656;PMS5003;71194;38.900;-77.124;2023-11-21T07:05:06;7;7;
49656;PMS5003;71194;38.900;-77.124;2023-11-21T07:07:34;9;7;
49656;PMS5003;71194;38.900;-77.124;2023-11-21T07:10:02;7;7;
49656;PMS5003;71194;38.900;-77.124;2023-11-21T07:12:30;9;7;
49656;PMS5003;71194;38.900;-77.124;2023-11-21T07:14:58;10;8;
49656;PMS5003;71194;38.900;-77.124;2023-11-21T07:17:26;7;7;
49656;PMS5003;71194;38.900;-77.124;2023-11-21T07:19:54;8;8;
49656;PMS5003;71194;38.900;-77.124;2023-11-21T07:22:22;10;8;
49656;PMS5003;71194;38.900;-77.124;2023-11-21T07:24:50;6;6;
49656;PMS5003;71194;38.900;-77.124;2023-11-21T07:27:18;10;8;
49656;PMS5003;71194;38.900;-77.124;2023-11-21T07:29:46;7;7;
49656;PMS5003;71194;38.900;-77.124;2023-11-21T07:32:14;4;4;
49656;PMS5003;71194;38.900;-77.124;2023-11-21T07:34:42;5;5;
49656;PMS5003;71194;38.900;-77.124;2023-11-21T07:37:10;8;6;
49656;PMS5003;71194;38.900;-77.124;2023-11-21T07:39:38;5;5;
49656;PMS5003;71194;38.900;-77.124;2023-11-21T07:42:06;10;8;
49656;PMS5003;71194;38.900;-77.124;2023-11-21T07:44:34;9;7;
49656;PMS5003;71194;38.900;-77.124;2023-11-21T07:47:02;8;7;
49656;PMS5003;71194;38.900;-77.124;2023-11-21T07:49:30;7;5;
49656;PMS5003;71194;38.900;-77.124;2023-11-21T07:51:58;9;7;
49656;PMS5003;71194;38.900;-77.124;2023-11-21T07:54:26;8;6;
49656;PMS5003;71194;38.900;-77.124;2023-11-21T07:56:54;7;7;
49656;PMS5003;71194;38.900;-77.124;2023-11-21T07:59:22;10;7;
49656;PMS5003;71194;38.900;-77.124;2023-11-21T08:01:50;11;8;
49656;PMS5003;71194;38.900;-77.124;2023-11-21T08:04:18;11;7;
49656;PMS5003;71194;38.900;-77.124;2023-11-21T08:06:46;12;8;
49656;PMS5003;71194;38.900;-77.124;2023-11-21T08:09:14;9;7;
49656;PMS5003;71194;38.900;-77.124;2023-11-21T08:11:42;10;9;
49656;PMS5003;71194;38.900;-77.124;2023-11-21T08:14:10;11;8;
49656;PMS5003;71194;38.900;-77.124;2023-11-21T08:16:38;10;7;
49656;PMS5003;71194;38.900;-77.124;2023-11-21T08:19:07;8;5;
49656;PMS5003;71194;38.900;-77.124;2023-11-21T08:21:35;11;10;
49656;PMS5003;71194;38.900;-77.124;2023-11-21T08:24:03;6;6;
49656;PMS5003;71194;38.900;-77.124;2023-11-21T08:26:32;8;7;
49656;PMS5003;71194;38.900;-77.124;2023-11-21T08:29:00;10;9;
49656;PMS5003;71194;38.900;-77.124;2023-11-21T08:31:28;6;6;
49656;PMS5003;71194;38.900;-77.124;2023-11-21T08:33:56;5;5;
49656;PMS5003;71194;38.900;-77.124;2023-11-21T08:36:25;5;5;
49656;PMS5003;71194;38.900;-77.124;2023-11-21T08:38:53;8;7;
49656;PMS5003;71194;38.900;-77.124;2023-11-21T08:41:21;6;6;
49656;PMS5003;71194;38.900;-77.124;2023-11-21T08:43:49;9;8;
49656;PMS5003;71194;38.900;-77.124;2023-11-21T08:46:18;10;8;
49656;PMS5003;71194;38.900;-77.124;2023-11-21T08:48:46;11;6;
49656;PMS5003;71194;38.900;-77.124;2023-11-21T08:51:14;5;5;
49656;PMS5003;71194;38.900;-77.124;2023-11-21T08:53:42;8;6;
49656;PMS5003;71194;38.900;-77.124;2023-11-21T08:56:12;5;5;
49656;PMS5003;71194;38.900;-77.124;2023-11-21T08:58:40;7;5;
49656;PMS5003;71194;38.900;-77.124;2023-11-21T09:01:08;7;7;
49656;PMS5003;71194;38.900;-77.124;2023-11-21T09:03:36;7;7;
49656;PMS5003;71194;38.900;-77.124;2023-11-21T09:06:05;9;8;
49656;PMS5003;71194;38.900;-77.124;2023-11-21T09:08:33;9;8;
49656;PMS5003;71194;38.900;-77.124;2023-11-21T09:11:01;8;8;
49656;PMS5003;71194;38.900;-77.124;2023-11-21T09:13:29;7;5;
49656;PMS5003;71194;38.900;-77.124;2023-11-21T09:15:57;7;7;
49656;PMS5003;71194;38.900;-77.124;2023-11-21T09:18:25;8;7;
49656;PMS5003;71194;38.900;-77.124;2023-11-21T09:20:53;4;4;
49656;PMS5003;71194;38.900;-77.124;2023-11-21T09:23:21;7;5;
49656;PMS5003;71194;38.900;-77.124;2023-11-21T09:25:49;4;4;
49656;PMS5003;71194;38.900;-77.124;2023-11-21T09:28:17;9;6;
49656;PMS5003;71194;38.900;-77.124;2023-11-21T09:30:45;5;5;
49656;PMS5003;71194;38.900;-77.124;2023-11-21T09:33:13;6;6;
49656;PMS5003;71194;38.900;-77.124;2023-11-21T09:35:41;6;6;
49656;PMS5003;71194;38.900;-77.124;2023-11-21T09:38:10;9;6;
49656;PMS5003;71194;38.900;-77.124;2023-11-21T09:40:38;5;5;
49656;PMS5003;71194;38.900;-77.124;2023-11-21T09:43:07;9;7;
49656;PMS5003;71194;38.900;-77.124;2023-11-21T09:45:44;7;6;
49656;PMS5003;71194;38.900;-77.124;2023-11-21T09:48:13;8;7;
49656;PMS5003;71194;38.900;-77.124;2023-11-21T09:50:42;5;5;
49656;PMS5003;71194;38.900;-77.124;2023-11-21T09:53:13;7;7;
49656;PMS5003;71194;38.900;-77.124;2023-11-21T09:55:44;4;4;
49656;PMS5003;71194;38.900;-77.124;2023-11-21T09:58:14;5;4;
49656;PMS5003;71194;38.900;-77.124;2023-11-21T10:00:43;3;3;
49656;PMS5003;71194;38.900;-77.124;2023-11-21T10:03:11;5;5;
49656;PMS5003;71194;38.900;-77.124;2023-11-21T10:05:41;4;4;
49656;PMS5003;71194;38.900;-77.124;2023-11-21T10:08:10;5;3;
49656;PMS5003;71194;38.900;-77.124;2023-11-21T10:10:40;6;5;
49656;PMS5003;71194;38.900;-77.124;2023-11-21T10:13:11;3;3;
49656;PMS5003;71194;38.900;-77.124;2023-11-21T10:15:40;5;5;
49656;PMS5003;71194;38.900;-77.124;2023-11-21T10:18:09;3;3;
49656;PMS5003;71194;38.900;-77.124;2023-11-21T10:20:37;3;3;
49656;PMS5003;71194;38.900;-77.124;2023-11-21T10:23:05;3;3;
49656;PMS5003;71194;38.900;-77.124;2023-11-21T10:25:33;3;3;
49656;PMS5003;71194;38.900;-77.124;2023-11-21T10:28:02;3;3;
49656;PMS5003;71194;38.900;-77.124;2023-11-21T10:30:32;2;2;
49656;PMS5003;71194;38.900;-77.124;2023-11-21T10:33:01;4;4;
49656;PMS5003;71194;38.900;-77.124;2023-11-21T10:35:46;5;3;
49656;PMS5003;71194;38.900;-77.124;2023-11-21T10:38:15;3;3;
49656;PMS5003;71194;38.900;-77.124;2023-11-21T10:40:43;3;3;
49656;PMS5003;71194;38.900;-77.124;2023-11-21T10:43:13;5;5;
49656;PMS5003;71194;38.900;-77.124;2023-11-21T10:45:41;4;4;
49656;PMS5003;71194;38.900;-77.124;2023-11-21T10:48:10;4;3;
49656;PMS5003;71194;38.900;-77.124;2023-11-21T10:50:41;2;2;
49656;PMS5003;71194;38.900;-77.124;2023-11-21T10:53:09;4;4;
49656;PMS5003;71194;38.900;-77.124;2023-11-21T10:55:37;3;3;
49656;PMS5003;71194;38.900;-77.124;2023-11-21T10:58:05;4;4;
49656;PMS5003;71194;38.900;-77.124;2023-11-21T11:00:34;4;4;
49656;PMS5003;71194;38.900;-77.124;2023-11-21T11:03:02;3;3;
49656;PMS5003;71194;38.900;-77.124;2023-11-21T11:05:30;3;3;
49656;PMS5003;71194;38.900;-77.124;2023-11-21T11:07:58;5;4;
49656;PMS5003;71194;38.900;-77.124;2023-11-21T11:10:31;6;5;
49656;PMS5003;71194;38.900;-77.124;2023-11-21T11:12:59;4;4;
49656;PMS5003;71194;38.900;-77.124;2023-11-21T11:15:28;4;4;
49656;PMS5003;71194;38.900;-77.124;2023-11-21T11:17:55;3;3;
49656;PMS5003;71194;38.900;-77.124;2023-11-21T11:20:25;5;5;
49656;PMS5003;71194;38.900;-77.124;2023-11-21T11:23:14;2;2;
49656;PMS5003;71194;38.900;-77.124;2023-11-21T11:26:01;5;4;
49656;PMS5003;71194;38.900;-77.124;2023-11-21T11:28:44;4;4;
49656;PMS5003;71194;38.900;-77.124;2023-11-21T11:31:22;3;3;
49656;PMS5003;71194;38.900;-77.124;2023-11-21T11:34:00;7;4;
49656;PMS5003;71194;38.900;-77.124;2023-11-21T11:36:40;4;3;
49656;PMS5003;71194;38.900;-77.124;2023-11-21T11:39:30;5;5;
49656;PMS5003;71194;38.900;-77.124;2023-11-21T11:42:03;5;4;
49656;PMS5003;71194;38.900;-77.124;2023-11-21T11:44:49;5;3;
49656;PMS5003;71194;38.900;-77.124;2023-11-21T11:47:23;4;3;
49656;PMS5003;71194;38.900;-77.124;2023-11-21T11:49:56;4;4;
49656;PMS5003;71194;38.900;-77.124;2023-11-21T11:52:34;2;2;
49656;PMS5003;71194;38.900;-77.124;2023-11-21T11:55:05;3;3;
49656;PMS5003;71194;38.900;-77.124;2023-11-21T11:57:34;2;2;
49656;PMS5003;71194;38.900;-77.124;2023-11-21T12:00:10;2;2;
49656;PMS5003;71194;38.900;-77.124;2023-11-21T12:02:39;2;2;
49656;PMS5003;71194;38.900;-77.124;2023-11-21T12:05:08;2;2;
49656;PMS5003;71194;38.900;-77.124;2023-11-21T12:07:46;4;2;
49656;PMS5003;71194;38.900;-77.124;2023-11-21T12:10:16;4;3;
49656;PMS5003;71194;38.900;-77.124;2023-11-21T12:12:46;5;2;
49656;PMS5003;71194;38.900;-77.124;2023-11-21T12:15:16;10;7;
49656;PMS5003;71194;38.900;-77.124;2023-11-21T12:17:44;5;4;
49656;PMS5003;71194;38.900;-77.124;2023-11-21T12:20:13;5;4;
49656;PMS5003;71194;38.900;-77.124;2023-11-21T12:22:42;6;3;
49656;PMS5003;71194;38.900;-77.124;2023-11-21T12:25:10;1;1;
49656;PMS5003;71194;38.900;-77.124;2023-11-21T12:27:39;3;3;
49656;PMS5003;71194;38.900;-77.124;2023-11-21T12:30:07;5;3;
49656;PMS5003;71194;38.900;-77.124;2023-11-21T12:32:35;2;2;
49656;PMS5003;71194;38.900;-77.124;2023-11-21T12:35:04;4;4;
49656;PMS5003;71194;38.900;-77.124;2023-11-21T12:37:32;3;3;
49656;PMS5003;71194;38.900;-77.124;2023-11-21T12:40:01;4;3;
49656;PMS5003;71194;38.900;-77.124;2023-11-21T12:42:29;9;9;
49656;PMS5003;71194;38.900;-77.124;2023-11-21T12:45:29;5;4;
49656;PMS5003;71194;38.900;-77.124;2023-11-21T12:47:59;5;3;
49656;PMS5003;71194;38.900;-77.124;2023-11-21T12:50:30;3;3;
49656;PMS5003;71194;38.900;-77.124;2023-11-21T12:52:58;3;1;
49656;PMS5003;71194;38.900;-77.124;2023-11-21T12:55:29;3;3;
49656;PMS5003;71194;38.900;-77.124;2023-11-21T12:58:00;4;4;
49656;PMS5003;71194;38.900;-77.124;2023-11-21T13:00:31;2;2;
49656;PMS5003;71194;38.900;-77.124;2023-11-21T13:03:01;2;2;
49656;PMS5003;71194;38.900;-77.124;2023-11-21T13:05:32;4;4;
49656;PMS5003;71194;38.900;-77.124;2023-11-21T13:08:01;3;3;
49656;PMS5003;71194;38.900;-77.124;2023-11-21T13:10:30;3;3;
49656;PMS5003;71194;38.900;-77.124;2023-11-21T13:12:58;2;2;
49656;PMS5003;71194;38.900;-77.124;2023-11-21T13:15:27;4;4;
49656;PMS5003;71194;38.900;-77.124;2023-11-21T13:17:54;3;3;
49656;PMS5003;71194;38.900;-77.124;2023-11-21T13:20:23;3;3;
49656;PMS5003;71194;38.900;-77.124;2023-11-21T13:22:52;6;6;
49656;PMS5003;71194;38.900;-77.124;2023-11-21T13:25:21;8;5;
49656;PMS5003;71194;38.900;-77.124;2023-11-21T13:27:49;4;4;
49656;PMS5003;71194;38.900;-77.124;2023-11-21T13:30:17;4;4;
49656;PMS5003;71194;38.900;-77.124;2023-11-21T13:32:45;3;3;
49656;PMS5003;71194;38.900;-77.124;2023-11-21T13:35:13;3;1;
49656;PMS5003;71194;38.900;-77.124;2023-11-21T13:37:42;6;5;
49656;PMS5003;71194;38.900;-77.124;2023-11-21T13:40:10;4;4;
49656;PMS5003;71194;38.900;-77.124;2023-11-21T13:42:38;3;3;
49656;PMS5003;71194;38.900;-77.124;2023-11-21T13:45:06;5;5;
49656;PMS5003;71194;38.900;-77.124;2023-11-21T13:47:34;5;5;
49656;PMS5003;71194;38.900;-77.124;2023-11-21T13:50:02;3;3;
49656;PMS5003;71194;38.900;-77.124;2023-11-21T13:52:31;6;4;
49656;PMS5003;71194;38.900;-77.124;2023-11-21T13:54:59;3;3;
49656;PMS5003;71194;38.900;-77.124;2023-11-21T13:57:27;3;3;
49656;PMS5003;71194;38.900;-77.124;2023-11-21T13:59:55;4;3;
49656;PMS5003;71194;38.900;-77.124;2023-11-21T14:02:23;5;4;
49656;PMS5003;71194;38.900;-77.124;2023-11-21T14:04:51;3;3;
49656;PMS5003;71194;38.900;-77.124;2023-11-21T14:07:19;6;5;
49656;PMS5003;71194;38.900;-77.124;2023-11-21T14:09:47;4;4;
49656;PMS5003;71194;38.900;-77.124;2023-11-21T14:12:15;4;4;
49656;PMS5003;71194;38.900;-77.124;2023-11-21T14:14:44;6;5;
49656;PMS5003;71194;38.900;-77.124;2023-11-21T14:17:12;7;5;
49656;PMS5003;71194;38.900;-77.124;2023-11-21T14:19:40;2;2;
49656;PMS5003;71194;38.900;-77.124;2023-11-21T14:22:08;3;3;
49656;PMS5003;71194;38.900;-77.124;2023-11-21T14:24:36;5;5;
49656;PMS5003;71194;38.900;-77.124;2023-11-21T14:27:04;5;5;
49656;PMS5003;71194;38.900;-77.124;2023-11-21T14:29:32;5;4;
49656;PMS5003;71194;38.900;-77.124;2023-11-21T14:32:00;4;4;
49656;PMS5003;71194;38.900;-77.124;2023-11-21T14:34:28;4;4;
49656;PMS5003;71194;38.900;-77.124;2023-11-21T14:36:56;3;3;
49656;PMS5003;71194;38.900;-77.124;2023-11-21T14:39:25;5;5;
49656;PMS5003;71194;38.900;-77.124;2023-11-21T14:41:53;4;4;
49656;PMS5003;71194;38.900;-77.124;2023-11-21T14:44:22;4;4;
49656;PMS5003;71194;38.900;-77.124;2023-11-21T14:46:50;4;4;
49656;PMS5003;71194;38.900;-77.124;2023-11-21T14:49:23;6;5;
49656;PMS5003;71194;38.900;-77.124;2023-11-21T14:51:52;5;5;
49656;PMS5003;71194;38.900;-77.124;2023-11-21T14:54:21;3;3;
49656;PMS5003;71194;38.900;-77.124;2023-11-21T14:56:49;4;4;
49656;PMS5003;71194;38.900;-77.124;2023-11-21T14:59:17;4;4;
49656;PMS5003;71194;38.900;-77.124;2023-11-21T15:01:45;5;3;
49656;PMS5003;71194;38.900;-77.124;2023-11-21T15:04:13;5;3;
49656;PMS5003;71194;38.900;-77.124;2023-11-21T15:06:41;5;5;
49656;PMS5003;71194;38.900;-77.124;2023-11-21T15:09:09;3;3;
49656;PMS5003;71194;38.900;-77.124;2023-11-21T15:11:37;6;5;
49656;PMS5003;71194;38.900;-77.124;2023-11-21T15:14:05;4;4;
49656;PMS5003;71194;38.900;-77.124;2023-11-21T15:16:33;6;6;
49656;PMS5003;71194;38.900;-77.124;2023-11-21T15:19:01;8;6;
49656;PMS5003;71194;38.900;-77.124;2023-11-21T15:21:30;6;6;
49656;PMS5003;71194;38.900;-77.124;2023-11-21T15:23:57;4;4;
49656;PMS5003;71194;38.900;-77.124;2023-11-21T15:26:25;4;4;
49656;PMS5003;71194;38.900;-77.124;2023-11-21T15:28:53;5;5;
49656;PMS5003;71194;38.900;-77.124;2023-11-21T15:31:22;6;6;
49656;PMS5003;71194;38.900;-77.124;2023-11-21T15:33:50;6;6;
49656;PMS5003;71194;38.900;-77.124;2023-11-21T15:36:18;10;7;
49656;PMS5003;71194;38.900;-77.124;2023-11-21T15:38:46;6;5;
49656;PMS5003;71194;38.900;-77.124;2023-11-21T15:41:14;4;4;
49656;PMS5003;71194;38.900;-77.124;2023-11-21T15:43:42;4;4;
49656;PMS5003;71194;38.900;-77.124;2023-11-21T15:46:10;8;6;
49656;PMS5003;71194;38.900;-77.124;2023-11-21T15:48:38;5;5;
49656;PMS5003;71194;38.900;-77.124;2023-11-21T15:51:06;3;2;
49656;PMS5003;71194;38.900;-77.124;2023-11-21T15:53:34;5;5;
49656;PMS5003;71194;38.900;-77.124;2023-11-21T15:56:03;5;5;
49656;PMS5003;71194;38.900;-77.124;2023-11-21T15:58:32;5;4;
49656;PMS5003;71194;38.900;-77.124;2023-11-21T16:01:00;9;6;
49656;PMS5003;71194;38.900;-77.124;2023-11-21T16:03:28;6;5;
49656;PMS5003;71194;38.900;-77.124;2023-11-21T16:05:56;6;6;
49656;PMS5003;71194;38.900;-77.124;2023-11-21T16:08:24;7;6;
49656;PMS5003;71194;38.900;-77.124;2023-11-21T16:10:54;7;7;
49656;PMS5003;71194;38.900;-77.124;2023-11-21T16:13:23;6;6;
49656;PMS5003;71194;38.900;-77.124;2023-11-21T16:15:51;4;4;
49656;PMS5003;71194;38.900;-77.124;2023-11-21T16:18:19;5;3;
49656;PMS5003;71194;38.900;-77.124;2023-11-21T16:20:47;6;6;
49656;PMS5003;71194;38.900;-77.124;2023-11-21T16:23:15;9;6;
49656;PMS5003;71194;38.900;-77.124;2023-11-21T16:25:43;7;6;